createdAt,value
2018-02-04T00:01:44.035Z,4.37
2018-02-04T00:04:09.959Z,4.16
2018-02-04T00:06:35.941Z,4.41
2018-02-04T00:09:01.937Z,4.55
2018-02-04T00:11:27.861Z,4.32
2018-02-04T00:16:26.196Z,4.14
2018-02-04T00:18:52.146Z,4.30
2018-02-04T00:21:18.094Z,4.61
2018-02-04T00:23:44.046Z,4.64
2018-02-04T00:26:09.974Z,4.26
2018-02-04T00:28:35.906Z,4.31
2018-02-04T00:31:01.826Z,4.35
2018-02-04T00:33:27.750Z,4.50
2018-02-04T00:35:53.713Z,4.57
2018-02-04T00:38:19.658Z,4.59
2018-02-04T00:40:45.692Z,4.80
2018-02-04T00:43:11.636Z,4.64
2018-02-04T00:45:37.591Z,4.31
2018-02-04T00:48:03.521Z,4.75
2018-02-04T00:50:29.446Z,4.50
2018-02-04T00:52:55.400Z,4.24
2018-02-04T00:55:21.350Z,4.63
2018-02-04T00:57:47.279Z,4.42
2018-02-04T01:00:13.239Z,4.58
2018-02-04T01:02:39.172Z,4.41
2018-02-04T01:05:05.113Z,4.59
2018-02-04T01:07:31.053Z,4.67
2018-02-04T01:09:57.011Z,4.64
2018-02-04T01:12:22.960Z,4.74
2018-02-04T01:14:48.926Z,4.89
2018-02-04T01:17:14.893Z,4.77
2018-02-04T01:19:40.830Z,4.67
2018-02-04T01:22:06.761Z,4.57
2018-02-04T01:24:32.696Z,4.42
2018-02-04T01:26:58.628Z,4.42
2018-02-04T01:29:24.559Z,4.65
2018-02-04T01:31:50.516Z,4.49
2018-02-04T01:34:16.467Z,4.65
2018-02-04T01:36:42.392Z,4.92
2018-02-04T01:39:08.371Z,4.94
2018-02-04T01:41:34.325Z,5.02
2018-02-04T01:44:00.257Z,4.64
2018-02-04T01:46:26.199Z,4.52
2018-02-04T01:48:52.118Z,4.47
2018-02-04T01:51:18.051Z,4.26
2018-02-04T01:53:43.974Z,4.71
2018-02-04T01:56:09.914Z,4.57
2018-02-04T01:58:35.837Z,4.34
2018-02-04T02:01:01.793Z,4.15
2018-02-04T02:03:27.725Z,4.58
2018-02-04T02:05:53.711Z,4.59
2018-02-04T02:08:19.639Z,4.59
2018-02-04T02:10:45.807Z,4.47
2018-02-04T02:13:11.737Z,4.27
2018-02-04T02:15:37.671Z,4.48
2018-02-04T02:18:03.611Z,4.89
2018-02-04T02:20:29.560Z,4.67
2018-02-04T02:22:55.513Z,4.76
2018-02-04T02:25:21.462Z,4.66
2018-02-04T02:27:47.387Z,4.37
2018-02-04T02:30:13.317Z,4.42
2018-02-04T02:32:39.239Z,4.56
2018-02-04T02:35:05.170Z,4.65
2018-02-04T02:37:31.109Z,4.70
2018-02-04T02:39:57.049Z,4.50
2018-02-04T02:42:22.990Z,4.28
2018-02-04T02:44:48.931Z,4.22
2018-02-04T02:47:14.873Z,4.55
2018-02-04T02:49:41.055Z,4.66
2018-02-04T02:52:06.978Z,4.60
2018-02-04T02:54:32.931Z,4.18
2018-02-04T02:56:58.885Z,4.36
2018-02-04T02:59:24.837Z,4.44
2018-02-04T03:01:50.763Z,4.30
2018-02-04T03:04:16.707Z,4.73
2018-02-04T03:06:42.655Z,4.34
2018-02-04T03:09:08.621Z,4.34
2018-02-04T03:11:34.547Z,4.85
2018-02-04T03:14:00.493Z,5.18
2018-02-04T03:16:26.422Z,4.55
2018-02-04T03:18:52.375Z,4.91
2018-02-04T03:21:18.293Z,5.08
2018-02-04T03:23:44.231Z,5.21
2018-02-04T03:26:10.161Z,4.81
2018-02-04T03:28:36.101Z,4.75
2018-02-04T03:31:02.062Z,4.89
2018-02-04T03:33:28.003Z,4.76
2018-02-04T03:35:53.937Z,4.63
2018-02-04T03:38:19.888Z,4.61
2018-02-04T03:40:45.825Z,4.69
2018-02-04T03:43:11.749Z,4.95
2018-02-04T03:45:37.669Z,4.79
2018-02-04T03:48:03.619Z,5.06
2018-02-04T03:50:29.549Z,4.81
2018-02-04T03:52:55.573Z,4.62
2018-02-04T03:55:21.497Z,4.58
2018-02-04T03:57:47.440Z,4.81
2018-02-04T04:00:13.659Z,4.72
2018-02-04T04:02:40.309Z,4.77
2018-02-04T04:05:06.265Z,4.69
2018-02-04T04:07:32.201Z,4.23
2018-02-04T04:09:58.129Z,4.62
2018-02-04T04:12:24.077Z,4.94
2018-02-04T04:14:50.004Z,4.73
2018-02-04T04:17:15.941Z,4.63
2018-02-04T04:19:41.875Z,4.42
2018-02-04T04:22:07.808Z,4.78
2018-02-04T04:24:33.731Z,4.91
2018-02-04T04:26:59.699Z,4.43
2018-02-04T04:29:25.615Z,4.71
2018-02-04T04:31:51.564Z,4.62
2018-02-04T04:34:17.499Z,4.44
2018-02-04T04:36:43.450Z,4.25
2018-02-04T04:39:09.399Z,4.32
2018-02-04T04:41:35.337Z,4.39
2018-02-04T04:44:01.277Z,4.14
2018-02-04T04:46:30.807Z,4.35
2018-02-04T04:48:56.894Z,4.48
2018-02-04T04:51:22.886Z,4.26
2018-02-04T04:53:48.810Z,4.53
2018-02-04T04:56:14.757Z,4.43
2018-02-04T04:58:40.690Z,4.38
2018-02-04T05:01:06.626Z,4.14
2018-02-04T05:03:32.552Z,4.17
2018-02-04T05:05:58.505Z,4.27
2018-02-04T05:08:24.449Z,4.37
2018-02-04T05:10:50.388Z,4.54
2018-02-04T05:13:16.314Z,4.44
2018-02-04T05:15:42.238Z,4.15
2018-02-04T05:18:08.194Z,4.40
2018-02-04T05:20:34.175Z,4.22
2018-02-04T05:23:00.104Z,4.37
2018-02-04T05:25:26.051Z,4.55
2018-02-04T05:27:51.994Z,4.26
2018-02-04T05:30:17.958Z,3.73
2018-02-04T05:32:43.901Z,4.28
2018-02-04T05:35:09.860Z,3.76
2018-02-04T05:37:35.818Z,3.99
2018-02-04T05:40:01.763Z,3.68
2018-02-04T05:42:28.011Z,3.78
2018-02-04T05:44:53.965Z,3.80
2018-02-04T05:47:19.918Z,3.67
2018-02-04T05:49:45.851Z,4.26
2018-02-04T05:52:11.834Z,4.40
2018-02-04T05:54:37.767Z,4.31
2018-02-04T05:57:03.700Z,3.88
2018-02-04T05:59:29.668Z,4.39
2018-02-04T06:01:55.648Z,3.93
2018-02-04T06:04:21.584Z,4.39
2018-02-04T06:06:47.507Z,4.45
2018-02-04T06:09:13.457Z,4.51
2018-02-04T06:11:39.405Z,4.32
2018-02-04T06:14:05.369Z,4.48
2018-02-04T06:16:31.299Z,4.60
2018-02-04T06:18:57.296Z,4.17
2018-02-04T06:21:24.021Z,4.35
2018-02-04T06:23:49.971Z,3.80
2018-02-04T06:26:15.941Z,3.66
2018-02-04T06:28:41.868Z,4.10
2018-02-04T06:31:07.800Z,4.04
2018-02-04T06:33:33.761Z,4.04
2018-02-04T06:35:59.695Z,4.11
2018-02-04T06:38:25.681Z,4.31
2018-02-04T06:40:51.629Z,3.99
2018-02-04T06:43:17.590Z,4.25
2018-02-04T06:45:43.559Z,4.20
2018-02-04T06:48:09.573Z,4.35
2018-02-04T06:50:38.973Z,4.61
2018-02-04T06:53:04.910Z,4.76
2018-02-04T06:55:30.848Z,4.06
2018-02-04T06:57:56.786Z,4.30
2018-02-04T07:00:22.764Z,4.56
2018-02-04T07:02:48.679Z,4.27
2018-02-04T07:07:46.671Z,4.02
2018-02-04T07:10:12.624Z,3.95
2018-02-04T07:12:38.554Z,4.21
2018-02-04T07:15:05.568Z,3.92
2018-02-04T07:17:31.590Z,4.24
2018-02-04T07:19:57.539Z,4.36
2018-02-04T07:22:23.507Z,4.32
2018-02-04T07:24:49.557Z,4.67
2018-02-04T07:27:15.507Z,4.31
2018-02-04T07:29:41.455Z,4.24
2018-02-04T07:32:07.421Z,3.81
2018-02-04T07:34:33.351Z,3.98
2018-02-04T07:36:59.285Z,3.83
2018-02-04T07:39:25.289Z,4.21
2018-02-04T07:41:51.459Z,3.87
2018-02-04T07:44:17.388Z,3.85
2018-02-04T07:46:43.393Z,4.07
2018-02-04T07:49:10.501Z,4.12
2018-02-04T07:51:36.755Z,4.64
2018-02-04T07:54:02.689Z,4.35
2018-02-04T07:56:28.636Z,4.50
2018-02-04T07:58:54.628Z,4.62
2018-02-04T08:01:20.580Z,4.44
2018-02-04T08:03:46.522Z,3.99
2018-02-04T08:06:14.548Z,4.26
2018-02-04T08:08:40.532Z,4.22
2018-02-04T08:11:06.458Z,4.03
2018-02-04T08:13:32.485Z,4.55
2018-02-04T08:15:58.406Z,4.61
2018-02-04T08:18:24.430Z,4.24
2018-02-04T08:20:50.358Z,3.96
2018-02-04T08:23:16.382Z,4.10
2018-02-04T08:25:42.324Z,4.13
2018-02-04T08:28:08.280Z,4.42
2018-02-04T08:30:34.223Z,3.95
2018-02-04T08:33:00.142Z,4.42
2018-02-04T08:35:26.082Z,4.47
2018-02-04T08:37:52.042Z,4.42
2018-02-04T08:40:17.970Z,4.40
2018-02-04T08:42:43.970Z,4.62
2018-02-04T08:45:09.924Z,4.53
2018-02-04T08:47:35.847Z,4.62
2018-02-04T08:50:01.866Z,4.14
2018-02-04T08:52:28.912Z,4.54
2018-02-04T08:54:54.868Z,4.72
2018-02-04T08:57:20.819Z,4.78
2018-02-04T08:59:46.869Z,5.06
2018-02-04T09:02:12.806Z,4.92
2018-02-04T09:04:38.734Z,4.95
2018-02-04T09:07:04.654Z,5.16
2018-02-04T09:09:30.614Z,4.48
2018-02-04T09:11:56.554Z,4.65
2018-02-04T09:14:22.491Z,4.53
2018-02-04T09:16:48.416Z,4.17
2018-02-04T09:19:14.476Z,4.78
2018-02-04T09:21:40.435Z,4.74
2018-02-04T09:24:06.402Z,4.83
2018-02-04T09:26:32.318Z,4.92
2018-02-04T09:28:58.317Z,5.15
2018-02-04T09:31:24.290Z,4.55
2018-02-04T09:33:50.328Z,4.49
2018-02-04T09:36:16.280Z,4.66
2018-02-04T09:38:42.207Z,4.63
2018-02-04T09:41:10.314Z,4.35
2018-02-04T09:43:36.222Z,4.56
2018-02-04T09:46:02.211Z,4.54
2018-02-04T09:48:28.228Z,4.57
2018-02-04T09:50:54.159Z,4.27
2018-02-04T09:53:20.083Z,4.44
2018-02-04T09:55:47.045Z,4.66
2018-02-04T09:58:12.978Z,4.52
2018-02-04T10:00:38.913Z,4.95
2018-02-04T10:03:04.890Z,4.88
2018-02-04T10:05:30.843Z,4.99
2018-02-04T10:07:56.772Z,4.56
2018-02-04T10:10:22.720Z,4.52
2018-02-04T10:12:48.653Z,4.49
2018-02-04T10:15:14.621Z,4.50
2018-02-04T10:17:40.606Z,4.37
2018-02-04T10:20:06.530Z,4.54
2018-02-04T10:22:32.533Z,4.55
2018-02-04T10:24:59.245Z,4.35
2018-02-04T10:27:25.205Z,4.19
2018-02-04T10:29:51.179Z,4.44
2018-02-04T10:32:17.141Z,4.41
2018-02-04T10:34:43.105Z,4.41
2018-02-04T10:37:10.069Z,4.56
2018-02-04T10:39:36.043Z,4.41
2018-02-04T10:42:02.017Z,4.52
2018-02-04T10:44:28.035Z,4.33
2018-02-04T10:46:55.086Z,4.34
2018-02-04T10:49:22.018Z,4.44
2018-02-04T10:51:48.084Z,4.73
2018-02-04T10:54:14.046Z,4.80
2018-02-04T10:56:40.005Z,4.75
2018-02-04T10:59:05.932Z,4.74
2018-02-04T11:01:31.873Z,4.97
2018-02-04T11:03:57.858Z,5.03
2018-02-04T11:06:23.782Z,4.81
2018-02-04T11:08:49.705Z,5.10
2018-02-04T11:11:15.695Z,5.08
2018-02-04T11:13:41.689Z,5.33
2018-02-04T11:16:07.603Z,5.01
2018-02-04T11:18:33.547Z,4.96
2018-02-04T11:20:59.481Z,4.90
2018-02-04T11:23:25.409Z,4.73
2018-02-04T11:25:51.425Z,4.91
2018-02-04T11:28:17.364Z,5.02
2018-02-04T11:30:43.302Z,4.85
2018-02-04T11:33:09.268Z,4.94
2018-02-04T11:35:35.376Z,5.51
2018-02-04T11:38:01.976Z,5.10
2018-02-04T11:40:27.939Z,5.09
2018-02-04T11:42:53.895Z,5.12
2018-02-04T11:45:19.822Z,5.23
2018-02-04T11:47:45.814Z,5.15
2018-02-04T11:50:11.746Z,4.95
2018-02-04T11:52:37.748Z,5.10
2018-02-04T11:55:04.770Z,5.06
2018-02-04T11:57:30.818Z,5.10
2018-02-04T11:59:56.776Z,5.03
2018-02-04T12:02:22.759Z,5.02
2018-02-04T12:04:48.779Z,5.10
2018-02-04T12:07:14.732Z,5.17
2018-02-04T12:09:40.678Z,5.42
2018-02-04T12:12:06.622Z,5.43
2018-02-04T12:14:32.592Z,5.27
2018-02-04T12:16:58.728Z,5.27
2018-02-04T12:19:24.672Z,5.35
2018-02-04T12:21:50.668Z,5.22
2018-02-04T12:24:16.694Z,5.04
2018-02-04T12:26:42.706Z,5.21
2018-02-04T12:29:08.669Z,5.11
2018-02-04T12:31:34.658Z,5.26
2018-02-04T12:34:00.583Z,5.26
2018-02-04T12:36:26.525Z,5.13
2018-02-04T12:38:53.616Z,5.13
2018-02-04T12:41:19.656Z,5.30
2018-02-04T12:43:45.601Z,5.51
2018-02-04T12:46:11.554Z,5.45
2018-02-04T12:48:37.482Z,5.44
2018-02-04T12:51:03.410Z,5.32
2018-02-04T12:53:29.351Z,5.46
2018-02-04T12:55:55.289Z,5.64
2018-02-04T12:58:21.294Z,5.66
2018-02-04T13:00:47.236Z,5.86
2018-02-04T13:03:13.243Z,5.94
2018-02-04T13:05:39.207Z,6.37
2018-02-04T13:08:05.177Z,6.17
2018-02-04T13:10:31.228Z,6.07
2018-02-04T13:12:57.164Z,6.49
2018-02-04T13:15:23.119Z,6.28
2018-02-04T13:17:49.149Z,6.07
2018-02-04T13:20:15.083Z,6.07
2018-02-04T13:22:41.063Z,5.96
2018-02-04T13:25:06.993Z,5.93
2018-02-04T13:27:33.031Z,5.89
2018-02-04T13:29:59.098Z,5.96
2018-02-04T13:32:25.021Z,5.67
2018-02-04T13:34:50.961Z,5.70
2018-02-04T13:37:16.895Z,5.55
2018-02-04T13:39:43.231Z,5.57
2018-02-04T13:42:09.174Z,5.54
2018-02-04T13:44:35.096Z,5.59
2018-02-04T13:47:01.020Z,5.49
2018-02-04T13:49:26.953Z,5.55
2018-02-04T13:51:52.900Z,5.67
2018-02-04T13:54:18.873Z,5.92
2018-02-04T13:56:44.812Z,5.67
2018-02-04T13:59:10.767Z,5.78
2018-02-04T14:01:36.759Z,5.66
2018-02-04T14:04:02.740Z,5.47
2018-02-04T14:06:28.703Z,5.76
2018-02-04T14:08:54.765Z,5.48
2018-02-04T14:11:20.721Z,5.51
2018-02-04T14:13:46.707Z,5.51
2018-02-04T14:16:12.672Z,5.52
2018-02-04T14:18:38.625Z,5.55
2018-02-04T14:21:04.635Z,5.46
2018-02-04T14:23:30.595Z,5.30
2018-02-04T14:25:56.534Z,5.29
2018-02-04T14:28:22.556Z,5.34
2018-02-04T14:30:48.497Z,5.68
2018-02-04T14:33:14.477Z,5.71
2018-02-04T14:35:40.489Z,5.55
2018-02-04T14:38:06.482Z,5.51
2018-02-04T14:40:32.411Z,5.31
2018-02-04T14:42:59.452Z,5.47
2018-02-04T14:45:25.401Z,5.47
2018-02-04T14:47:51.369Z,5.56
2018-02-04T14:50:19.364Z,5.39
2018-02-04T14:52:45.302Z,5.47
2018-02-04T14:55:11.298Z,5.52
2018-02-04T14:57:37.230Z,5.42
2018-02-04T15:00:03.176Z,5.63
2018-02-04T15:02:29.114Z,5.61
2018-02-04T15:04:55.054Z,5.31
2018-02-04T15:07:21.142Z,5.04
2018-02-04T15:09:49.186Z,5.47
2018-02-04T15:12:15.196Z,5.31
2018-02-04T15:14:42.252Z,5.29
2018-02-04T15:17:08.254Z,5.21
2018-02-04T15:19:34.260Z,5.49
2018-02-04T15:22:00.343Z,5.55
2018-02-04T15:24:26.292Z,5.44
2018-02-04T15:26:52.289Z,5.43
2018-02-04T15:29:18.271Z,5.53
2018-02-04T15:31:44.629Z,5.63
2018-02-04T15:34:10.633Z,5.60
2018-02-04T15:36:36.657Z,5.11
2018-02-04T15:39:02.675Z,5.16
2018-02-04T15:41:28.617Z,5.34
2018-02-04T15:43:55.351Z,5.11
2018-02-04T15:46:21.331Z,5.27
2018-02-04T15:48:47.605Z,5.32
2018-02-04T15:51:13.866Z,5.38
2018-02-04T15:53:40.550Z,5.29
2018-02-04T15:56:06.818Z,5.16
2018-02-04T15:58:34.077Z,5.52
2018-02-04T16:01:00.468Z,5.30
2018-02-04T16:03:26.739Z,5.51
2018-02-04T16:05:58.507Z,5.61
2018-02-04T16:08:24.734Z,5.77
2018-02-04T16:10:50.985Z,5.56
2018-02-04T16:13:17.211Z,5.20
2018-02-04T16:15:43.527Z,5.29
2018-02-04T16:18:09.829Z,5.00
2018-02-04T16:20:36.150Z,5.02
2018-02-04T16:23:02.129Z,5.14
2018-02-04T16:25:28.172Z,5.15
2018-02-04T16:27:54.106Z,5.09
2018-02-04T16:30:20.107Z,5.18
2018-02-04T16:32:46.149Z,4.80
2018-02-04T16:35:12.128Z,4.80
2018-02-04T16:37:38.135Z,5.16
2018-02-04T16:40:04.220Z,4.87
2018-02-04T16:42:30.227Z,4.98
2018-02-04T16:44:56.165Z,4.97
2018-02-04T16:47:22.279Z,4.87
2018-02-04T16:49:48.239Z,4.80
2018-02-04T16:52:15.030Z,4.80
2018-02-04T16:54:41.073Z,4.95
2018-02-04T16:57:07.180Z,4.71
2018-02-04T17:04:39.472Z,4.51
2018-02-04T17:07:06.926Z,4.70
2018-02-04T17:09:33.172Z,4.62
2018-02-04T17:11:59.230Z,4.53
2018-02-04T17:14:25.268Z,4.48
2018-02-04T17:16:51.220Z,4.67
2018-02-04T17:19:17.244Z,4.49
2018-02-04T17:21:43.260Z,4.65
2018-02-04T17:24:09.222Z,4.53
2018-02-04T17:26:35.212Z,4.51
2018-02-04T17:29:01.195Z,4.48
2018-02-04T17:31:27.140Z,4.48
2018-02-04T17:33:53.089Z,4.57
2018-02-04T17:36:19.035Z,4.26
2018-02-04T17:38:44.986Z,4.47
2018-02-04T17:41:10.962Z,4.53
2018-02-04T17:43:37.034Z,4.66
2018-02-04T17:46:03.065Z,4.63
2018-02-04T17:48:29.084Z,4.70
2018-02-04T17:50:55.029Z,4.31
2018-02-04T17:53:21.019Z,4.29
2018-02-04T17:55:48.161Z,4.18
2018-02-04T17:58:14.139Z,4.35
2018-02-04T18:00:40.155Z,4.29
2018-02-04T18:03:06.127Z,4.32
2018-02-04T18:05:32.082Z,4.30
2018-02-04T18:07:58.935Z,4.24
2018-02-04T18:10:24.878Z,4.29
2018-02-04T18:12:50.850Z,4.22
2018-02-04T18:15:16.808Z,4.12
2018-02-04T18:17:42.755Z,4.15
2018-02-04T18:20:08.706Z,4.37
2018-02-04T18:22:34.653Z,4.11
2018-02-04T18:25:00.637Z,3.78
2018-02-04T18:27:26.599Z,3.70
2018-02-04T18:29:52.553Z,3.80
2018-02-04T18:32:18.527Z,4.08
2018-02-04T18:34:44.601Z,4.12
2018-02-04T18:37:10.544Z,3.98
2018-02-04T18:39:36.493Z,3.48
2018-02-04T18:42:02.419Z,3.38
2018-02-04T18:44:28.371Z,3.25
2018-02-04T18:46:54.319Z,3.70
2018-02-04T18:49:20.283Z,3.91
2018-02-04T18:51:46.253Z,3.56
2018-02-04T18:54:12.213Z,3.33
2018-02-04T18:56:38.161Z,3.55
2018-02-04T18:59:04.141Z,3.75
2018-02-04T19:01:30.133Z,3.55
2018-02-04T19:03:56.123Z,4.07
2018-02-04T19:06:22.066Z,3.39
2018-02-04T19:08:48.349Z,3.62
2018-02-04T19:11:14.302Z,3.38
2018-02-04T19:13:40.255Z,3.27
2018-02-04T19:16:06.235Z,3.44
2018-02-04T19:18:32.203Z,3.30
2018-02-04T19:20:58.209Z,3.17
2018-02-04T19:23:24.175Z,3.13
2018-02-04T19:25:50.135Z,3.06
2018-02-04T19:28:16.081Z,3.38
2018-02-04T19:30:42.038Z,3.30
2018-02-04T19:33:07.983Z,3.06
2018-02-04T19:38:05.182Z,3.39
2018-02-04T19:40:31.114Z,3.06
2018-02-04T19:42:57.072Z,2.72
2018-02-04T19:45:23.004Z,2.56
2018-02-04T19:47:48.990Z,2.38
2018-02-04T19:50:15.020Z,2.43
2018-02-04T19:52:41.166Z,2.70
2018-02-04T19:55:07.381Z,2.99
2018-02-04T19:57:33.740Z,3.17
2018-02-04T20:00:00.392Z,3.33
2018-02-04T20:02:26.917Z,3.23
2018-02-04T20:04:53.109Z,3.20
2018-02-04T20:07:19.323Z,3.67
2018-02-04T20:09:45.551Z,3.41
2018-02-04T20:12:11.773Z,2.76
2018-02-04T20:14:38.023Z,2.14
2018-02-04T20:17:04.284Z,2.65
2018-02-04T20:19:30.555Z,3.32
2018-02-04T20:21:56.577Z,3.31
2018-02-04T20:24:22.562Z,3.42
2018-02-04T20:26:48.575Z,3.42
2018-02-04T20:29:14.542Z,3.13
2018-02-04T20:31:40.549Z,2.70
2018-02-04T20:34:06.877Z,2.78
2018-02-04T20:36:32.840Z,2.90
2018-02-04T20:38:59.109Z,2.96
2018-02-04T20:41:25.077Z,3.01
2018-02-04T20:43:51.025Z,2.76
2018-02-04T20:46:17.004Z,2.48
2018-02-04T20:48:43.049Z,2.60
2018-02-04T20:51:09.010Z,2.14
2018-02-04T20:53:34.985Z,2.22
2018-02-04T20:56:00.934Z,2.81
2018-02-04T20:58:26.887Z,3.02
2018-02-04T21:00:52.837Z,3.07
2018-02-04T21:03:18.781Z,3.13
2018-02-04T21:05:44.734Z,2.98
2018-02-04T21:08:10.762Z,2.82
2018-02-04T21:10:36.641Z,2.75
2018-02-04T21:13:02.639Z,2.83
2018-02-04T21:15:28.589Z,2.35
2018-02-04T21:17:54.565Z,2.65
2018-02-04T21:20:20.534Z,2.67
2018-02-04T21:22:46.489Z,2.91
2018-02-04T21:25:12.435Z,3.10
2018-02-04T21:27:38.395Z,2.97
2018-02-04T21:30:04.421Z,2.43
2018-02-04T21:32:30.748Z,2.29
2018-02-04T21:34:56.807Z,2.34
2018-02-04T21:37:22.768Z,2.88
2018-02-04T21:39:48.703Z,2.83
2018-02-04T21:42:14.657Z,2.75
2018-02-04T21:44:40.598Z,2.53
2018-02-04T21:47:06.760Z,2.84
2018-02-04T21:49:32.721Z,2.80
2018-02-04T21:51:58.659Z,2.99
2018-02-04T21:54:24.599Z,3.06
2018-02-04T21:56:50.531Z,3.05
2018-02-04T21:59:16.502Z,3.03
2018-02-04T22:01:42.718Z,2.86
2018-02-04T22:04:08.684Z,3.20
2018-02-04T22:06:34.604Z,3.49
2018-02-04T22:09:00.554Z,3.22
2018-02-04T22:11:26.498Z,3.13
2018-02-04T22:13:52.453Z,2.97
2018-02-04T22:16:18.396Z,2.46
2018-02-04T22:18:44.334Z,2.49
2018-02-04T22:21:10.276Z,2.88
2018-02-04T22:23:36.207Z,2.95
2018-02-04T22:26:02.146Z,2.73
2018-02-04T22:28:28.090Z,2.80
2018-02-04T22:30:54.052Z,2.57
2018-02-04T22:33:19.990Z,2.55
2018-02-04T22:35:45.917Z,2.66
2018-02-04T22:38:11.884Z,2.18
2018-02-04T22:40:37.815Z,2.33
2018-02-04T22:43:03.810Z,2.65
2018-02-04T22:45:29.743Z,2.85
2018-02-04T22:47:55.700Z,3.06
2018-02-04T22:50:21.646Z,3.02
2018-02-04T22:52:47.611Z,2.62
2018-02-04T22:55:13.534Z,2.73
2018-02-04T22:57:39.470Z,2.62
2018-02-04T23:00:08.152Z,2.80
2018-02-04T23:02:34.641Z,2.45
2018-02-04T23:05:00.575Z,2.46
2018-02-04T23:07:26.514Z,2.08
2018-02-04T23:09:52.434Z,1.90
2018-02-04T23:12:18.451Z,1.98
2018-02-04T23:14:44.379Z,1.91
2018-02-04T23:17:10.316Z,1.59
2018-02-04T23:19:36.263Z,2.13
2018-02-04T23:22:02.207Z,2.38
2018-02-04T23:24:28.146Z,2.43
2018-02-04T23:26:54.083Z,2.13
2018-02-04T23:29:20.027Z,2.39
2018-02-04T23:31:45.965Z,2.84
2018-02-04T23:34:11.907Z,2.80
2018-02-04T23:36:37.873Z,2.75
2018-02-04T23:39:03.802Z,2.41
2018-02-04T23:41:29.774Z,2.86
2018-02-04T23:43:55.775Z,2.48
2018-02-04T23:46:21.723Z,2.52
2018-02-04T23:48:47.661Z,2.49
2018-02-04T23:51:13.587Z,2.77
2018-02-04T23:53:39.523Z,3.10
2018-02-04T23:56:05.484Z,3.05
2018-02-04T23:58:31.421Z,2.64
